createdAt,value
2018-09-01T00:01:41.186Z,63.50
2018-09-01T00:04:08.498Z,63.50
2018-09-01T00:06:36.104Z,63.50
2018-09-01T00:09:04.524Z,63.40
2018-09-01T00:11:31.921Z,63.40
2018-09-01T00:13:59.255Z,63.50
2018-09-01T00:16:26.610Z,63.50
2018-09-01T00:18:53.934Z,63.60
2018-09-01T00:21:21.301Z,63.80
2018-09-01T00:23:48.613Z,63.70
2018-09-01T00:26:15.971Z,63.80
2018-09-01T00:28:43.420Z,63.60
2018-09-01T00:31:10.743Z,63.70
2018-09-01T00:33:38.075Z,63.80
2018-09-01T00:36:05.518Z,64.00
2018-09-01T00:38:38.776Z,64.00
2018-09-01T00:41:06.116Z,64.00
2018-09-01T00:43:33.500Z,63.90
2018-09-01T00:46:00.859Z,64.10
2018-09-01T00:48:28.159Z,64.30
2018-09-01T00:50:55.480Z,64.30
2018-09-01T00:53:22.812Z,64.30
2018-09-01T00:55:50.139Z,64.50
2018-09-01T00:58:17.508Z,64.50
2018-09-01T01:00:45.065Z,64.30
2018-09-01T01:03:12.452Z,64.40
2018-09-01T01:05:39.767Z,64.40
2018-09-01T01:08:07.224Z,64.60
2018-09-01T01:10:34.561Z,64.70
2018-09-01T01:13:01.909Z,64.80
2018-09-01T01:15:29.211Z,65.00
2018-09-01T01:17:56.560Z,65.70
2018-09-01T01:20:23.947Z,65.10
2018-09-01T01:22:51.312Z,65.20
2018-09-01T01:25:18.868Z,65.20
2018-09-01T01:27:46.196Z,65.30
2018-09-01T01:30:13.530Z,65.50
2018-09-01T01:32:40.887Z,65.40
2018-09-01T01:35:08.218Z,65.20
2018-09-01T01:37:36.015Z,65.20
2018-09-01T01:40:04.390Z,65.30
2018-09-01T01:42:32.095Z,65.20
2018-09-01T01:44:59.406Z,65.30
2018-09-01T01:47:26.851Z,65.30
2018-09-01T01:49:54.194Z,65.20
2018-09-01T01:52:21.615Z,65.20
2018-09-01T01:54:49.019Z,65.10
2018-09-01T01:57:16.388Z,65.10
2018-09-01T01:59:43.723Z,65.20
2018-09-01T02:02:11.079Z,65.10
2018-09-01T02:04:38.411Z,65.10
2018-09-01T02:07:05.737Z,65.20
2018-09-01T02:09:33.260Z,65.00
2018-09-01T02:12:00.559Z,65.20
2018-09-01T02:14:27.863Z,65.30
2018-09-01T02:16:55.378Z,65.30
2018-09-01T02:19:22.983Z,65.30
2018-09-01T02:21:50.351Z,65.50
2018-09-01T02:24:17.677Z,65.50
2018-09-01T02:26:45.172Z,65.50
2018-09-01T02:29:12.485Z,66.30
2018-09-01T02:31:39.883Z,65.60
2018-09-01T02:34:07.215Z,65.70
2018-09-01T02:36:34.544Z,65.80
2018-09-01T02:39:02.134Z,65.60
2018-09-01T02:41:29.455Z,65.70
2018-09-01T02:43:56.785Z,65.60
2018-09-01T02:46:24.147Z,65.70
2018-09-01T02:48:51.455Z,65.70
2018-09-01T02:51:18.759Z,65.70
2018-09-01T02:53:46.259Z,65.50
2018-09-01T02:56:13.560Z,65.60
2018-09-01T02:58:40.947Z,65.60
2018-09-01T03:01:14.056Z,65.60
2018-09-01T03:03:41.473Z,65.50
2018-09-01T03:06:08.815Z,65.50
2018-09-01T03:08:36.207Z,65.50
2018-09-01T03:11:03.536Z,65.80
2018-09-01T03:13:30.926Z,65.80
2018-09-01T03:15:58.298Z,65.90
2018-09-01T03:18:25.599Z,65.80
2018-09-01T03:20:52.979Z,65.90
2018-09-01T03:23:20.294Z,65.90
2018-09-01T03:25:47.600Z,66.00
2018-09-01T03:28:14.914Z,66.00
2018-09-01T03:30:42.232Z,66.00
2018-09-01T03:33:09.558Z,66.10
2018-09-01T03:35:36.885Z,66.00
2018-09-01T03:38:04.442Z,65.90
2018-09-01T03:40:31.795Z,65.70
2018-09-01T03:42:59.111Z,65.70
2018-09-01T03:45:26.445Z,65.80
2018-09-01T03:47:54.141Z,65.80
2018-09-01T03:50:21.488Z,65.80
2018-09-01T03:52:49.011Z,66.10
2018-09-01T03:55:16.375Z,66.10
2018-09-01T03:57:43.726Z,66.20
2018-09-01T04:00:11.381Z,66.20
2018-09-01T04:02:38.682Z,66.20
2018-09-01T04:05:06.497Z,66.30
2018-09-01T04:07:33.803Z,66.90
2018-09-01T04:10:01.348Z,66.40
2018-09-01T04:12:28.659Z,66.30
2018-09-01T04:14:56.012Z,66.40
2018-09-01T04:17:23.291Z,66.50
2018-09-01T04:19:50.624Z,66.40
2018-09-01T04:22:17.943Z,66.50
2018-09-01T04:24:45.252Z,66.50
2018-09-01T04:27:12.671Z,66.50
2018-09-01T04:29:39.993Z,66.40
2018-09-01T04:32:07.385Z,66.50
2018-09-01T04:34:34.620Z,67.40
2018-09-01T04:37:01.920Z,66.70
2018-09-01T04:39:29.251Z,66.70
2018-09-01T04:41:56.597Z,66.80
2018-09-01T04:44:24.019Z,66.80
2018-09-01T04:46:51.344Z,66.90
2018-09-01T04:51:52.742Z,67.00
2018-09-01T04:54:20.080Z,66.80
2018-09-01T04:56:47.424Z,67.00
2018-09-01T04:59:14.836Z,67.00
2018-09-01T05:01:42.159Z,67.00
2018-09-01T05:04:09.472Z,67.20
2018-09-01T05:06:36.783Z,67.10
2018-09-01T05:09:05.425Z,67.10
2018-09-01T05:11:32.721Z,67.10
2018-09-01T05:14:00.099Z,67.30
2018-09-01T05:16:27.467Z,67.40
2018-09-01T05:18:54.835Z,67.60
2018-09-01T05:21:22.166Z,67.70
2018-09-01T05:23:49.556Z,67.90
2018-09-01T05:26:16.884Z,68.30
2018-09-01T05:28:44.243Z,68.30
2018-09-01T05:31:11.639Z,68.40
2018-09-01T05:33:38.998Z,68.50
2018-09-01T05:36:06.542Z,68.80
2018-09-01T05:38:34.065Z,69.30
2018-09-01T05:41:01.637Z,69.50
2018-09-01T05:43:28.964Z,70.00
2018-09-01T05:46:02.958Z,70.00
2018-09-01T05:48:30.344Z,70.00
2018-09-01T05:50:57.902Z,70.10
2018-09-01T05:53:25.265Z,70.60
2018-09-01T05:55:52.768Z,72.00
2018-09-01T05:58:20.071Z,73.40
2018-09-01T06:00:48.582Z,74.60
2018-09-01T06:03:16.321Z,75.50
2018-09-01T06:05:44.218Z,76.30
2018-09-01T06:08:11.606Z,76.60
2018-09-01T06:10:38.920Z,76.70
2018-09-01T06:13:06.249Z,76.70
2018-09-01T06:15:33.551Z,76.60
2018-09-01T06:18:01.018Z,76.60
2018-09-01T06:20:28.312Z,76.40
2018-09-01T06:22:55.699Z,76.00
2018-09-01T06:25:23.212Z,75.80
2018-09-01T06:27:52.265Z,75.80
2018-09-01T06:30:25.562Z,75.20
2018-09-01T06:32:52.952Z,74.60
2018-09-01T06:35:21.133Z,74.20
2018-09-01T06:37:48.474Z,73.50
2018-09-01T06:40:15.974Z,72.90
2018-09-01T06:42:43.348Z,72.20
2018-09-01T06:45:10.707Z,71.10
2018-09-01T06:47:38.080Z,70.60
2018-09-01T06:50:05.455Z,69.90
2018-09-01T06:52:32.789Z,69.10
2018-09-01T06:55:00.096Z,68.20
2018-09-01T06:57:27.670Z,67.60
2018-09-01T06:59:55.441Z,66.90
2018-09-01T07:02:23.255Z,66.40
2018-09-01T07:04:50.637Z,65.60
2018-09-01T07:07:17.989Z,65.50
2018-09-01T07:09:45.365Z,65.40
2018-09-01T07:12:12.807Z,65.20
2018-09-01T07:14:40.128Z,64.70
2018-09-01T07:17:07.768Z,64.60
2018-09-01T07:19:35.139Z,64.50
2018-09-01T07:22:02.943Z,64.30
2018-09-01T07:24:30.249Z,64.60
2018-09-01T07:26:57.607Z,64.60
2018-09-01T07:29:24.918Z,64.80
2018-09-01T07:31:52.310Z,64.50
2018-09-01T07:34:19.635Z,64.70
2018-09-01T07:36:47.311Z,65.70
2018-09-01T07:39:14.643Z,65.00
2018-09-01T07:41:41.962Z,65.20
2018-09-01T07:44:09.260Z,64.70
2018-09-01T07:46:36.600Z,64.50
2018-09-01T07:49:03.907Z,65.00
2018-09-01T07:51:31.287Z,64.70
2018-09-01T07:53:58.676Z,64.90
2018-09-01T07:56:26.011Z,64.90
2018-09-01T07:58:53.395Z,64.80
2018-09-01T08:01:20.842Z,64.60
2018-09-01T08:03:48.151Z,64.10
2018-09-01T08:06:15.485Z,63.90
2018-09-01T08:08:42.829Z,63.40
2018-09-01T08:11:10.443Z,63.50
2018-09-01T08:13:37.797Z,63.40
2018-09-01T08:16:05.132Z,63.40
2018-09-01T08:18:32.464Z,63.10
2018-09-01T08:21:00.172Z,61.00
2018-09-01T08:23:27.487Z,60.20
2018-09-01T08:25:54.894Z,59.80
2018-09-01T08:28:22.367Z,60.00
2018-09-01T08:30:49.750Z,60.20
2018-09-01T08:33:17.165Z,59.90
2018-09-01T08:35:44.490Z,59.50
2018-09-01T08:38:11.904Z,59.30
2018-09-01T08:40:39.203Z,59.40
2018-09-01T08:43:06.775Z,59.50
2018-09-01T08:45:34.093Z,58.10
2018-09-01T08:48:01.430Z,57.30
2018-09-01T08:50:28.826Z,56.00
2018-09-01T08:52:56.130Z,57.20
2018-09-01T08:55:23.690Z,57.20
2018-09-01T08:57:51.207Z,56.60
2018-09-01T09:00:18.531Z,56.40
2018-09-01T09:02:45.846Z,55.90
2018-09-01T09:05:13.155Z,55.40
2018-09-01T09:07:40.516Z,55.80
2018-09-01T09:10:07.855Z,55.60
2018-09-01T09:12:35.147Z,54.80
2018-09-01T09:15:02.616Z,54.00
2018-09-01T09:17:30.006Z,54.40
2018-09-01T09:19:57.351Z,54.00
2018-09-01T09:22:24.663Z,53.70
2018-09-01T09:24:52.039Z,53.80
2018-09-01T09:27:19.578Z,53.40
2018-09-01T09:29:46.934Z,52.50
2018-09-01T09:32:14.337Z,53.20
2018-09-01T09:34:41.855Z,51.60
2018-09-01T09:37:09.209Z,51.80
2018-09-01T09:39:36.539Z,52.20
2018-09-01T09:42:03.897Z,52.70
2018-09-01T09:44:31.202Z,50.40
2018-09-01T09:46:58.498Z,51.40
2018-09-01T09:49:25.831Z,50.30
2018-09-01T09:51:53.143Z,49.00
2018-09-01T09:54:20.680Z,47.80
2018-09-01T09:56:48.037Z,48.70
2018-09-01T09:59:15.436Z,49.30
2018-09-01T10:01:42.806Z,50.10
2018-09-01T10:04:10.962Z,49.40
2018-09-01T10:06:38.572Z,49.90
2018-09-01T10:09:08.395Z,48.50
2018-09-01T10:11:35.726Z,49.70
2018-09-01T10:14:03.103Z,48.60
2018-09-01T10:16:30.448Z,47.90
2018-09-01T10:18:57.780Z,47.50
2018-09-01T10:21:25.130Z,46.30
2018-09-01T10:23:52.451Z,47.80
2018-09-01T10:26:19.826Z,48.10
2018-09-01T10:28:47.169Z,48.30
2018-09-01T10:31:15.500Z,49.00
2018-09-01T10:33:42.825Z,49.60
2018-09-01T10:36:10.173Z,49.70
2018-09-01T10:38:37.607Z,49.30
2018-09-01T10:41:05.139Z,49.60
2018-09-01T10:43:32.495Z,49.40
2018-09-01T10:46:00.633Z,49.40
2018-09-01T10:48:27.982Z,48.90
2018-09-01T10:50:55.347Z,49.00
2018-09-01T10:53:22.678Z,49.60
2018-09-01T10:55:50.059Z,49.80
2018-09-01T10:58:17.416Z,49.70
2018-09-01T11:00:44.724Z,50.60
2018-09-01T11:03:12.056Z,49.70
2018-09-01T11:05:39.487Z,47.70
2018-09-01T11:08:06.754Z,44.90
2018-09-01T11:10:34.088Z,45.80
2018-09-01T11:13:01.419Z,46.80
2018-09-01T11:15:28.819Z,46.00
2018-09-01T11:17:56.363Z,46.50
2018-09-01T11:20:23.716Z,46.40
2018-09-01T11:22:51.067Z,46.00
2018-09-01T11:25:18.416Z,46.90
2018-09-01T11:27:45.793Z,45.20
2018-09-01T11:30:13.099Z,42.30
2018-09-01T11:32:40.640Z,43.20
2018-09-01T11:35:08.254Z,44.20
2018-09-01T11:37:35.564Z,45.70
2018-09-01T11:40:02.895Z,44.70
2018-09-01T11:42:30.251Z,44.70
2018-09-01T11:44:57.531Z,44.90
2018-09-01T11:47:24.899Z,45.80
2018-09-01T11:49:52.262Z,42.40
2018-09-01T11:54:53.958Z,41.90
2018-09-01T11:57:21.295Z,44.30
2018-09-01T11:59:48.747Z,44.20
2018-09-01T12:02:16.150Z,44.80
2018-09-01T12:04:43.396Z,45.30
2018-09-01T12:07:11.193Z,44.90
2018-09-01T12:09:38.513Z,44.40
2018-09-01T12:12:05.904Z,45.50
2018-09-01T12:14:33.255Z,45.40
2018-09-01T12:17:00.552Z,46.00
2018-09-01T12:19:27.832Z,46.30
2018-09-01T12:21:55.192Z,45.00
2018-09-01T12:24:22.550Z,44.70
2018-09-01T12:26:50.056Z,44.70
2018-09-01T12:29:17.357Z,43.90
2018-09-01T12:31:44.663Z,43.10
2018-09-01T12:34:12.016Z,41.40
2018-09-01T12:36:39.307Z,40.00
2018-09-01T12:39:06.714Z,41.90
2018-09-01T12:41:36.572Z,42.00
2018-09-01T12:44:07.882Z,41.50
2018-09-01T12:46:35.200Z,41.10
2018-09-01T12:49:02.519Z,41.70
2018-09-01T12:51:29.863Z,42.30
2018-09-01T12:53:57.407Z,41.90
2018-09-01T12:56:24.834Z,41.70
2018-09-01T12:58:52.181Z,41.60
2018-09-01T13:01:19.531Z,41.20
2018-09-01T13:03:46.894Z,41.80
2018-09-01T13:06:14.226Z,41.90
2018-09-01T13:08:41.746Z,41.10
2018-09-01T13:11:10.019Z,42.00
2018-09-01T13:13:37.351Z,42.00
2018-09-01T13:16:04.720Z,42.40
2018-09-01T13:18:32.044Z,42.30
2018-09-01T13:20:59.627Z,42.50
2018-09-01T13:23:26.985Z,40.60
2018-09-01T13:25:54.645Z,39.70
2018-09-01T13:28:21.968Z,38.70
2018-09-01T13:30:49.597Z,39.20
2018-09-01T13:33:16.935Z,37.90
2018-09-01T13:35:44.248Z,38.60
2018-09-01T13:38:12.095Z,38.80
2018-09-01T13:40:39.878Z,39.80
2018-09-01T13:43:07.268Z,40.70
2018-09-01T13:45:34.723Z,40.70
2018-09-01T13:48:02.110Z,40.70
2018-09-01T13:50:29.476Z,39.80
2018-09-01T13:52:57.099Z,37.20
2018-09-01T13:55:24.496Z,38.40
2018-09-01T13:57:51.956Z,39.10
2018-09-01T14:00:19.307Z,37.00
2018-09-01T14:02:46.704Z,37.50
2018-09-01T14:05:14.045Z,37.70
2018-09-01T14:07:41.693Z,39.50
2018-09-01T14:10:08.979Z,40.20
2018-09-01T14:12:36.302Z,39.50
2018-09-01T14:15:03.727Z,38.60
2018-09-01T14:17:31.050Z,38.80
2018-09-01T14:19:58.363Z,39.50
2018-09-01T14:22:25.722Z,39.20
2018-09-01T14:24:53.052Z,38.80
2018-09-01T14:27:20.415Z,36.50
2018-09-01T14:29:47.743Z,36.20
2018-09-01T14:32:15.051Z,36.40
2018-09-01T14:34:42.415Z,37.80
2018-09-01T14:37:09.755Z,38.40
2018-09-01T14:39:37.116Z,39.00
2018-09-01T14:42:04.491Z,38.60
2018-09-01T14:44:31.958Z,38.30
2018-09-01T14:46:59.415Z,38.80
2018-09-01T14:49:26.701Z,39.30
2018-09-01T14:51:54.005Z,38.90
2018-09-01T14:54:21.567Z,39.00
2018-09-01T14:56:48.899Z,39.20
2018-09-01T14:59:16.234Z,38.60
2018-09-01T15:01:43.728Z,37.80
2018-09-01T15:04:11.026Z,35.60
2018-09-01T15:06:38.332Z,36.50
2018-09-01T15:09:06.066Z,37.30
2018-09-01T15:11:33.612Z,38.20
2018-09-01T15:14:01.115Z,38.30
2018-09-01T15:16:28.434Z,37.60
2018-09-01T15:18:55.775Z,36.80
2018-09-01T15:21:23.086Z,35.80
2018-09-01T15:23:50.385Z,37.50
2018-09-01T15:26:17.883Z,38.40
2018-09-01T15:28:45.229Z,37.60
2018-09-01T15:31:12.692Z,38.20
2018-09-01T15:33:39.983Z,39.70
2018-09-01T15:36:07.294Z,38.90
2018-09-01T15:38:34.867Z,38.00
2018-09-01T15:41:02.176Z,37.20
2018-09-01T15:43:29.513Z,37.30
2018-09-01T15:45:56.843Z,37.80
2018-09-01T15:48:24.143Z,38.90
2018-09-01T15:50:51.567Z,39.20
2018-09-01T15:53:18.924Z,38.80
2018-09-01T15:55:46.239Z,38.40
2018-09-01T15:58:13.576Z,38.80
2018-09-01T16:00:40.923Z,38.00
2018-09-01T16:03:08.517Z,37.90
2018-09-01T16:05:35.816Z,38.80
2018-09-01T16:08:03.285Z,40.00
2018-09-01T16:10:30.768Z,40.60
2018-09-01T16:12:58.083Z,40.20
2018-09-01T16:15:25.403Z,40.30
2018-09-01T16:17:52.738Z,39.40
2018-09-01T16:20:20.084Z,37.90
2018-09-01T16:22:47.403Z,38.50
2018-09-01T16:25:14.703Z,38.60
2018-09-01T16:27:42.255Z,38.70
2018-09-01T16:30:09.611Z,38.10
2018-09-01T16:32:36.931Z,38.20
2018-09-01T16:35:04.463Z,38.70
2018-09-01T16:37:31.768Z,39.00
2018-09-01T16:39:59.071Z,39.60
2018-09-01T16:42:26.378Z,39.60
2018-09-01T16:44:53.755Z,40.00
2018-09-01T16:47:21.044Z,40.20
2018-09-01T16:49:48.339Z,39.70
2018-09-01T16:52:15.638Z,39.10
2018-09-01T16:54:42.948Z,39.20
2018-09-01T16:57:10.256Z,38.80
2018-09-01T16:59:37.587Z,38.40
2018-09-01T17:02:05.428Z,39.20
2018-09-01T17:04:32.726Z,38.80
2018-09-01T17:07:00.065Z,39.60
2018-09-01T17:09:27.468Z,40.10
2018-09-01T17:11:54.836Z,39.80
2018-09-01T17:14:22.138Z,39.90
2018-09-01T17:16:49.516Z,40.30
2018-09-01T17:19:16.826Z,40.50
2018-09-01T17:21:44.191Z,39.70
2018-09-01T17:24:11.496Z,40.30
2018-09-01T17:26:38.828Z,40.50
2018-09-01T17:29:06.841Z,40.60
2018-09-01T17:31:34.144Z,40.80
2018-09-01T17:34:01.537Z,41.10
2018-09-01T17:36:28.856Z,40.80
2018-09-01T17:38:56.195Z,40.50
2018-09-01T17:41:23.499Z,40.40
2018-09-01T17:43:51.781Z,40.80
2018-09-01T17:46:19.085Z,41.00
2018-09-01T17:48:46.427Z,41.10
2018-09-01T17:51:13.741Z,41.00
2018-09-01T17:53:41.055Z,41.10
2018-09-01T17:56:08.396Z,41.20
2018-09-01T17:58:35.733Z,41.40
2018-09-01T18:01:03.059Z,41.30
2018-09-01T18:03:30.381Z,41.40
2018-09-01T18:05:57.728Z,41.50
2018-09-01T18:08:25.127Z,41.70
2018-09-01T18:10:52.556Z,42.80
2018-09-01T18:13:19.860Z,42.20
2018-09-01T18:15:47.163Z,42.40
2018-09-01T18:18:14.546Z,42.50
2018-09-01T18:20:41.891Z,42.50
2018-09-01T18:23:09.341Z,42.60
2018-09-01T18:25:36.591Z,42.80
2018-09-01T18:28:03.911Z,42.90
2018-09-01T18:30:31.208Z,43.20
2018-09-01T18:32:58.528Z,43.50
2018-09-01T18:35:25.911Z,43.70
2018-09-01T18:37:53.161Z,43.80
2018-09-01T18:40:20.467Z,44.10
2018-09-01T18:42:47.771Z,44.30
2018-09-01T18:45:15.075Z,44.40
2018-09-01T18:47:42.469Z,44.80
2018-09-01T18:50:09.797Z,45.10
2018-09-01T18:52:37.241Z,45.20
2018-09-01T18:55:04.909Z,45.30
2018-09-01T18:57:32.543Z,45.60
2018-09-01T18:59:59.843Z,45.80
2018-09-01T19:02:27.225Z,46.00
2018-09-01T19:04:54.749Z,46.10
2018-09-01T19:07:22.015Z,46.40
2018-09-01T19:09:49.354Z,46.40
2018-09-01T19:12:16.680Z,46.60
2018-09-01T19:14:44.079Z,46.70
2018-09-01T19:17:11.435Z,46.80
2018-09-01T19:19:38.825Z,47.10
2018-09-01T19:22:06.162Z,47.30
2018-09-01T19:24:33.538Z,47.40
2018-09-01T19:27:00.956Z,47.50
2018-09-01T19:29:28.375Z,47.80
2018-09-01T19:31:55.755Z,48.10
2018-09-01T19:34:23.096Z,48.10
2018-09-01T19:36:50.620Z,48.20
2018-09-01T19:39:17.972Z,48.50
2018-09-01T19:41:45.306Z,48.60
2018-09-01T19:44:13.204Z,48.90
2018-09-01T19:46:40.820Z,49.00
2018-09-01T19:49:08.558Z,49.10
2018-09-01T19:51:35.993Z,49.40
2018-09-01T19:54:03.324Z,49.60
2018-09-01T19:56:31.559Z,49.70
2018-09-01T19:58:58.890Z,49.80
2018-09-01T20:01:26.215Z,50.10
2018-09-01T20:03:54.106Z,50.50
2018-09-01T20:06:21.458Z,50.30
2018-09-01T20:08:48.824Z,50.40
2018-09-01T20:11:16.149Z,50.60
2018-09-01T20:13:43.498Z,50.70
2018-09-01T20:16:10.969Z,50.80
2018-09-01T20:18:38.268Z,51.10
2018-09-01T20:21:05.632Z,51.30
2018-09-01T20:23:32.975Z,51.40
2018-09-01T20:26:00.326Z,51.50
2018-09-01T20:28:27.753Z,51.70
2018-09-01T20:30:55.136Z,51.80
2018-09-01T20:33:22.488Z,51.70
2018-09-01T20:35:55.953Z,52.60
2018-09-01T20:38:23.916Z,52.00
2018-09-01T20:40:51.477Z,52.20
2018-09-01T20:43:18.788Z,52.30
2018-09-01T20:45:46.389Z,52.40
2018-09-01T20:48:20.389Z,52.50
2018-09-01T20:50:47.721Z,52.70
2018-09-01T20:53:15.069Z,52.70
2018-09-01T20:55:42.427Z,52.80
2018-09-01T20:58:10.637Z,53.00
2018-09-01T21:00:38.013Z,53.20
2018-09-01T21:03:05.421Z,53.20
2018-09-01T21:05:32.740Z,53.40
2018-09-01T21:08:00.109Z,53.40
2018-09-01T21:10:27.504Z,53.70
2018-09-01T21:12:54.824Z,53.60
2018-09-01T21:15:22.229Z,53.70
2018-09-01T21:17:49.788Z,53.70
2018-09-01T21:20:17.777Z,53.90
2018-09-01T21:22:45.136Z,54.00
2018-09-01T21:25:12.474Z,54.00
2018-09-01T21:27:39.820Z,54.20
2018-09-01T21:30:07.481Z,54.30
2018-09-01T21:32:41.509Z,54.20
2018-09-01T21:35:08.922Z,54.50
2018-09-01T21:37:36.215Z,54.60
2018-09-01T21:40:03.625Z,54.60
2018-09-01T21:42:30.961Z,54.60
2018-09-01T21:44:58.292Z,54.70
2018-09-01T21:47:25.709Z,54.90
2018-09-01T21:49:53.025Z,55.00
2018-09-01T21:52:20.452Z,55.00
2018-09-01T21:54:47.774Z,55.20
2018-09-01T21:57:15.116Z,55.30
2018-09-01T21:59:42.696Z,55.30
2018-09-01T22:02:15.769Z,55.60
2018-09-01T22:04:55.740Z,55.60
2018-09-01T22:07:23.084Z,55.70
2018-09-01T22:09:51.728Z,55.80
2018-09-01T22:12:19.643Z,56.00
2018-09-01T22:14:47.413Z,56.40
2018-09-01T22:17:14.779Z,56.40
2018-09-01T22:19:42.323Z,56.40
2018-09-01T22:22:09.980Z,56.60
2018-09-01T22:24:37.314Z,56.60
2018-09-01T22:27:04.837Z,56.70
2018-09-01T22:29:32.161Z,56.90
2018-09-01T22:31:59.500Z,56.90
2018-09-01T22:34:26.877Z,56.80
2018-09-01T22:36:54.412Z,56.80
2018-09-01T22:41:56.017Z,56.90
2018-09-01T22:44:23.359Z,56.80
2018-09-01T22:46:50.747Z,57.00
2018-09-01T22:49:18.087Z,57.10
2018-09-01T22:51:45.414Z,57.10
2018-09-01T22:54:12.754Z,57.10
2018-09-01T22:56:40.091Z,57.20
2018-09-01T22:59:07.433Z,57.30
2018-09-01T23:01:34.780Z,57.40
2018-09-01T23:04:02.603Z,57.60
2018-09-01T23:06:29.993Z,57.70
2018-09-01T23:08:57.357Z,57.80
2018-09-01T23:11:24.684Z,57.90
2018-09-01T23:13:52.021Z,58.00
2018-09-01T23:16:19.391Z,57.90
2018-09-01T23:18:47.140Z,58.00
2018-09-01T23:21:14.520Z,58.00
2018-09-01T23:23:41.886Z,58.10
2018-09-01T23:26:09.264Z,58.30
2018-09-01T23:28:36.594Z,58.50
2018-09-01T23:31:03.966Z,58.50
2018-09-01T23:33:31.404Z,58.50
2018-09-01T23:35:58.676Z,58.50
2018-09-01T23:38:26.101Z,58.60
2018-09-01T23:40:53.444Z,58.60
2018-09-01T23:43:20.740Z,58.70
2018-09-01T23:45:48.043Z,58.80
2018-09-01T23:48:15.400Z,58.90
2018-09-01T23:50:42.955Z,59.00
2018-09-01T23:53:10.287Z,60.00
2018-09-01T23:55:37.637Z,59.70
2018-09-01T23:58:05.745Z,59.50
